createdAt,value
2022-10-17T00:01:31.724Z,97149.31
2022-10-17T00:04:28.710Z,97151.22
2022-10-17T00:07:25.871Z,97155.97
2022-10-17T00:10:23.489Z,97160.84
2022-10-17T00:13:20.417Z,97151.31
2022-10-17T00:16:25.445Z,97155.50
2022-10-17T00:19:22.296Z,97160.34
2022-10-17T00:22:19.119Z,97158.94
2022-10-17T00:25:16.165Z,97166.88
2022-10-17T00:28:15.436Z,97160.00
2022-10-17T00:31:12.241Z,97170.16
2022-10-17T00:34:09.076Z,97172.19
2022-10-17T00:37:05.905Z,97162.63
2022-10-17T00:40:04.022Z,97169.00
2022-10-17T00:43:00.842Z,97175.03
2022-10-17T00:45:57.711Z,97171.34
2022-10-17T00:48:57.087Z,97170.31
2022-10-17T00:51:59.049Z,97160.53
2022-10-17T00:55:19.948Z,97168.56
2022-10-17T00:58:17.470Z,97180.78
2022-10-17T01:01:14.515Z,97169.63
2022-10-17T01:04:11.565Z,97171.25
2022-10-17T01:07:09.365Z,97175.94
2022-10-17T01:10:08.015Z,97170.19
2022-10-17T01:13:39.612Z,97175.91
2022-10-17T01:17:13.660Z,97197.13
2022-10-17T01:21:06.434Z,97186.34
2022-10-17T01:24:59.684Z,97190.19
2022-10-17T01:28:47.310Z,97178.50
2022-10-17T01:32:16.414Z,97187.50
2022-10-17T01:35:36.486Z,97180.19
2022-10-17T01:38:52.630Z,97174.97
2022-10-17T01:42:10.565Z,97181.75
2022-10-17T01:45:16.536Z,97179.31
2022-10-17T01:48:20.794Z,97180.69
2022-10-17T01:51:26.492Z,97181.78
2022-10-17T01:54:52.585Z,97169.69
2022-10-17T01:57:58.047Z,97176.00
2022-10-17T02:00:56.549Z,97165.81
2022-10-17T02:03:54.434Z,97176.09
2022-10-17T02:06:51.251Z,97164.34
2022-10-17T02:09:48.576Z,97168.38
2022-10-17T02:12:56.399Z,97158.38
2022-10-17T02:16:06.151Z,97160.00
2022-10-17T02:19:27.613Z,97161.75
2022-10-17T02:22:35.697Z,97158.75
2022-10-17T02:25:46.066Z,97155.47
2022-10-17T02:29:05.071Z,97160.81
2022-10-17T02:35:20.379Z,97164.59
2022-10-17T02:38:19.968Z,97154.81
2022-10-17T02:41:19.491Z,97150.56
2022-10-17T02:44:17.002Z,97144.69
2022-10-17T02:47:32.709Z,97147.31
2022-10-17T02:51:12.740Z,97147.31
2022-10-17T02:54:40.673Z,97160.97
2022-10-17T02:58:00.738Z,97156.78
2022-10-17T03:00:58.457Z,97163.59
2022-10-17T03:04:14.089Z,97166.69
2022-10-17T03:07:10.985Z,97172.50
2022-10-17T03:10:08.203Z,97177.91
2022-10-17T03:13:05.037Z,97181.22
2022-10-17T03:16:01.885Z,97178.06
2022-10-17T03:18:58.695Z,97173.84
2022-10-17T03:21:56.435Z,97183.63
2022-10-17T03:24:53.278Z,97183.34
2022-10-17T03:27:50.219Z,97191.00
2022-10-17T03:30:47.032Z,97181.84
2022-10-17T03:33:43.931Z,97189.88
2022-10-17T03:36:40.764Z,97193.66
2022-10-17T03:39:37.574Z,97187.56
2022-10-17T03:42:34.464Z,97188.31
2022-10-17T03:45:31.277Z,97192.19
2022-10-17T03:48:31.125Z,97200.44
2022-10-17T03:51:28.144Z,97194.53
2022-10-17T03:54:25.022Z,97207.47
2022-10-17T03:57:21.877Z,97204.22
2022-10-17T04:00:19.014Z,97216.03
2022-10-17T04:03:17.315Z,97219.91
2022-10-17T04:06:14.294Z,97207.22
2022-10-17T04:09:11.561Z,97231.41
2022-10-17T04:12:09.106Z,97230.78
2022-10-17T04:15:06.861Z,97223.47
2022-10-17T04:21:07.746Z,97227.94
2022-10-17T04:24:05.214Z,97228.53
2022-10-17T04:27:02.221Z,97239.16
2022-10-17T04:29:59.019Z,97238.22
2022-10-17T04:32:55.964Z,97236.13
2022-10-17T04:36:07.993Z,97233.34
2022-10-17T04:39:05.909Z,97232.03
2022-10-17T04:42:02.805Z,97241.03
2022-10-17T04:44:59.626Z,97240.84
2022-10-17T04:47:57.190Z,97245.78
2022-10-17T04:51:07.911Z,97241.28
2022-10-17T04:54:05.104Z,97246.56
2022-10-17T04:57:01.925Z,97243.06
2022-10-17T04:59:58.781Z,97246.56
2022-10-17T05:02:55.648Z,97249.81
2022-10-17T05:05:52.467Z,97245.78
2022-10-17T05:08:49.804Z,97246.06
2022-10-17T05:11:46.690Z,97243.16
2022-10-17T05:14:43.564Z,97249.91
2022-10-17T05:17:40.561Z,97248.63
2022-10-17T05:20:37.385Z,97248.34
2022-10-17T05:23:34.246Z,97250.72
2022-10-17T05:26:31.050Z,97247.84
2022-10-17T05:29:27.897Z,97249.78
2022-10-17T05:32:24.748Z,97242.28
2022-10-17T05:35:23.484Z,97256.25
2022-10-17T05:38:20.292Z,97256.81
2022-10-17T05:41:18.035Z,97273.28
2022-10-17T05:44:14.983Z,97273.19
2022-10-17T05:47:11.905Z,97277.94
2022-10-17T05:50:09.789Z,97270.63
2022-10-17T05:53:06.657Z,97281.44
2022-10-17T05:56:10.357Z,97282.47
2022-10-17T05:59:07.253Z,97284.13
2022-10-17T06:02:04.191Z,97281.72
2022-10-17T06:05:01.067Z,97286.22
2022-10-17T06:08:01.029Z,97290.47
2022-10-17T06:10:58.890Z,97277.41
2022-10-17T06:13:55.897Z,97284.88
2022-10-17T06:16:52.753Z,97279.56
2022-10-17T06:19:49.597Z,97286.28
2022-10-17T06:22:46.443Z,97289.94
2022-10-17T06:25:43.366Z,97284.78
2022-10-17T06:28:40.794Z,97291.97
2022-10-17T06:31:38.446Z,97286.66
2022-10-17T06:34:35.266Z,97298.44
2022-10-17T06:37:36.370Z,97294.88
2022-10-17T06:40:33.855Z,97300.47
2022-10-17T06:43:30.706Z,97291.66
2022-10-17T06:46:29.728Z,97298.66
2022-10-17T06:49:27.849Z,97306.03
2022-10-17T06:52:24.828Z,97304.41
2022-10-17T06:55:23.204Z,97297.97
2022-10-17T06:58:20.261Z,97302.44
2022-10-17T07:01:17.516Z,97305.63
2022-10-17T07:04:14.485Z,97317.22
2022-10-17T07:07:11.318Z,97315.94
2022-10-17T07:10:09.284Z,97306.50
2022-10-17T07:13:06.116Z,97310.59
2022-10-17T07:16:03.032Z,97323.06
2022-10-17T07:18:59.927Z,97324.66
2022-10-17T07:21:56.836Z,97330.13
2022-10-17T07:24:53.649Z,97328.44
2022-10-17T07:27:52.187Z,97340.94
2022-10-17T07:30:52.083Z,97335.13
2022-10-17T07:33:51.893Z,97335.59
2022-10-17T07:36:48.800Z,97336.66
2022-10-17T07:39:45.668Z,97336.56
2022-10-17T07:42:42.492Z,97342.00
2022-10-17T07:45:41.513Z,97338.09
2022-10-17T07:48:40.104Z,97334.28
2022-10-17T07:51:37.068Z,97334.84
2022-10-17T07:54:33.944Z,97336.63
2022-10-17T07:57:30.797Z,97342.16
2022-10-17T08:00:27.802Z,97341.97
2022-10-17T08:03:24.646Z,97333.47
2022-10-17T08:06:21.926Z,97335.75
2022-10-17T08:09:19.138Z,97335.22
2022-10-17T08:12:16.350Z,97324.19
2022-10-17T08:15:13.215Z,97332.41
2022-10-17T08:18:10.116Z,97331.63
2022-10-17T08:21:08.315Z,97334.69
2022-10-17T08:24:05.650Z,97328.53
2022-10-17T08:27:03.910Z,97320.53
2022-10-17T08:30:01.284Z,97319.56
2022-10-17T08:32:58.138Z,97316.06
2022-10-17T08:35:54.953Z,97317.44
2022-10-17T08:38:53.010Z,97295.53
2022-10-17T08:42:02.892Z,97267.19
2022-10-17T08:45:33.876Z,97278.94
2022-10-17T08:48:42.602Z,97268.13
2022-10-17T08:51:55.257Z,97267.94
2022-10-17T08:54:52.441Z,97268.09
2022-10-17T08:57:49.414Z,97266.94
2022-10-17T09:01:24.115Z,97259.66
2022-10-17T09:04:38.095Z,97255.13
2022-10-17T09:07:52.951Z,97252.78
2022-10-17T09:11:11.859Z,97253.88
2022-10-17T09:14:29.584Z,97248.31
2022-10-17T09:17:49.771Z,97251.19
2022-10-17T09:20:54.813Z,97244.50
2022-10-17T09:24:09.075Z,97241.69
2022-10-17T09:27:49.738Z,97235.81
2022-10-17T09:30:59.741Z,97236.41
2022-10-17T09:34:00.532Z,97230.09
2022-10-17T09:37:00.853Z,97233.19
2022-10-17T09:39:58.232Z,97230.53
2022-10-17T09:42:55.132Z,97227.59
2022-10-17T09:46:26.997Z,97235.88
2022-10-17T09:49:33.601Z,97237.06
2022-10-17T09:52:48.619Z,97245.47
2022-10-17T09:55:51.278Z,97240.81
2022-10-17T09:58:57.119Z,97237.66
2022-10-17T10:02:17.778Z,97239.44
2022-10-17T10:05:21.515Z,97230.00
2022-10-17T10:08:19.799Z,97230.81
2022-10-17T10:11:18.087Z,97235.22
2022-10-17T10:14:33.428Z,97234.88
2022-10-17T10:17:44.028Z,97242.78
2022-10-17T10:20:41.681Z,97243.47
2022-10-17T10:23:44.486Z,97248.22
2022-10-17T10:26:49.060Z,97249.94
2022-10-17T10:29:51.428Z,97247.41
2022-10-17T10:32:49.874Z,97257.38
2022-10-17T10:36:06.326Z,97249.06
2022-10-17T10:39:40.734Z,97250.81
2022-10-17T10:42:40.376Z,97245.03
2022-10-17T10:45:52.300Z,97238.41
2022-10-17T10:48:58.446Z,97239.78
2022-10-17T10:51:58.567Z,97240.88
2022-10-17T10:55:06.976Z,97229.63
2022-10-17T10:59:08.867Z,97228.75
2022-10-17T11:02:58.143Z,97227.59
2022-10-17T11:06:13.437Z,97238.16
2022-10-17T11:09:54.547Z,97230.06
2022-10-17T11:13:26.442Z,97228.00
2022-10-17T11:17:03.284Z,97237.19
2022-10-17T11:20:38.354Z,97227.78
2022-10-17T11:24:24.270Z,97225.94
2022-10-17T11:27:21.116Z,97230.63
2022-10-17T11:30:18.096Z,97230.69
2022-10-17T11:33:40.681Z,97238.22
2022-10-17T11:36:44.036Z,97230.41
2022-10-17T11:40:07.107Z,97236.88
2022-10-17T11:43:37.855Z,97235.00
2022-10-17T11:46:36.265Z,97234.09
2022-10-17T11:49:50.810Z,97229.53
2022-10-17T11:53:16.639Z,97229.63
2022-10-17T11:56:21.489Z,97222.03
2022-10-17T11:59:30.363Z,97227.56
2022-10-17T12:03:17.059Z,97225.25
2022-10-17T12:06:46.841Z,97231.03
2022-10-17T12:10:16.807Z,97222.69
2022-10-17T12:13:28.971Z,97219.91
2022-10-17T12:16:28.697Z,97229.34
2022-10-17T12:19:30.714Z,97220.28
2022-10-17T12:22:27.873Z,97220.47
2022-10-17T12:25:30.679Z,97209.16
2022-10-17T12:28:38.056Z,97222.13
2022-10-17T12:31:35.172Z,97220.00
2022-10-17T12:34:32.064Z,97223.97
2022-10-17T12:37:58.609Z,97223.41
2022-10-17T12:40:58.132Z,97230.91
2022-10-17T12:43:55.319Z,97230.09
2022-10-17T12:47:09.419Z,97223.78
2022-10-17T12:51:34.899Z,97220.72
2022-10-17T12:54:19.383Z,97221.38
2022-10-17T12:57:42.517Z,97221.78
2022-10-17T13:01:05.281Z,97225.53
2022-10-17T13:04:10.588Z,97219.09
2022-10-17T13:07:19.703Z,97218.91
2022-10-17T13:10:27.951Z,97215.19
2022-10-17T13:13:45.148Z,97222.47
2022-10-17T13:16:54.358Z,97220.63
2022-10-17T13:19:51.273Z,97228.84
2022-10-17T13:22:48.112Z,97233.38
2022-10-17T13:25:44.938Z,97227.84
2022-10-17T13:28:43.951Z,97236.78
2022-10-17T13:31:44.690Z,97231.13
2022-10-17T13:34:41.584Z,97230.28
2022-10-17T13:37:42.310Z,97235.66
2022-10-17T13:40:50.031Z,97237.28
2022-10-17T13:43:47.660Z,97242.28
2022-10-17T13:46:45.740Z,97243.50
2022-10-17T13:49:44.235Z,97236.66
2022-10-17T13:52:41.130Z,97236.47
2022-10-17T13:55:38.054Z,97233.69
2022-10-17T13:58:48.558Z,97234.69
2022-10-17T14:01:45.432Z,97246.03
2022-10-17T14:05:11.527Z,97236.88
2022-10-17T14:08:15.005Z,97240.22
2022-10-17T14:11:34.273Z,97238.06
2022-10-17T14:14:46.188Z,97247.03
2022-10-17T14:18:08.320Z,97252.81
2022-10-17T14:24:29.076Z,97242.19
2022-10-17T14:27:52.449Z,97253.09
2022-10-17T14:30:57.231Z,97241.97
2022-10-17T14:33:55.107Z,97244.22
2022-10-17T14:36:53.152Z,97254.41
2022-10-17T14:39:51.189Z,97252.78
2022-10-17T14:42:49.651Z,97250.47
2022-10-17T14:45:46.701Z,97244.31
2022-10-17T14:48:44.019Z,97240.63
2022-10-17T14:51:50.639Z,97255.38
2022-10-17T14:54:59.864Z,97259.75
2022-10-17T14:57:56.811Z,97253.34
2022-10-17T15:00:54.879Z,97261.22
2022-10-17T15:03:51.792Z,97264.38
2022-10-17T15:06:54.572Z,97269.03
2022-10-17T15:09:54.023Z,97273.13
2022-10-17T15:12:58.748Z,97280.13
2022-10-17T15:15:56.811Z,97268.56
2022-10-17T15:18:54.527Z,97266.53
2022-10-17T15:21:51.422Z,97260.09
2022-10-17T15:24:48.723Z,97270.47
2022-10-17T15:27:45.681Z,97270.81
2022-10-17T15:30:42.519Z,97276.00
2022-10-17T15:33:39.550Z,97273.75
2022-10-17T15:36:41.130Z,97280.16
2022-10-17T15:39:39.758Z,97291.59
2022-10-17T15:42:36.580Z,97286.63
2022-10-17T15:45:33.939Z,97288.13
2022-10-17T15:48:32.143Z,97290.97
2022-10-17T15:51:28.988Z,97302.00
2022-10-17T15:54:25.840Z,97300.09
2022-10-17T15:57:27.237Z,97310.28
2022-10-17T16:00:24.887Z,97307.09
2022-10-17T16:06:24.341Z,97308.75
2022-10-17T16:09:21.228Z,97318.72
2022-10-17T16:12:27.526Z,97317.59
2022-10-17T16:15:27.831Z,97312.28
2022-10-17T16:18:24.687Z,97316.94
2022-10-17T16:21:27.790Z,97320.03
2022-10-17T16:24:25.385Z,97334.50
2022-10-17T16:27:22.290Z,97336.38
2022-10-17T16:33:17.297Z,97349.75
2022-10-17T16:36:14.224Z,97364.22
2022-10-17T16:39:11.155Z,97372.94
2022-10-17T16:42:08.018Z,97361.03
2022-10-17T16:45:05.709Z,97368.44
2022-10-17T16:48:02.538Z,97369.91
2022-10-17T16:50:59.493Z,97378.84
2022-10-17T16:54:00.053Z,97379.50
2022-10-17T16:56:59.531Z,97388.81
2022-10-17T16:59:56.515Z,97386.03
2022-10-17T17:02:53.458Z,97385.03
2022-10-17T17:05:51.988Z,97387.59
2022-10-17T17:08:48.823Z,97389.09
2022-10-17T17:11:45.639Z,97392.88
2022-10-17T17:14:42.541Z,97398.91
2022-10-17T17:17:55.657Z,97403.59
2022-10-17T17:21:00.140Z,97405.13
2022-10-17T17:24:00.004Z,97402.06
2022-10-17T17:26:57.438Z,97402.69
2022-10-17T17:29:54.324Z,97413.94
2022-10-17T17:32:51.154Z,97414.44
2022-10-17T17:35:48.153Z,97425.94
2022-10-17T17:38:45.562Z,97429.19
2022-10-17T17:41:44.235Z,97435.25
2022-10-17T17:44:41.055Z,97433.72
2022-10-17T17:47:37.970Z,97425.56
2022-10-17T17:50:40.345Z,97436.00
2022-10-17T17:53:38.492Z,97440.88
2022-10-17T17:56:35.638Z,97449.56
2022-10-17T17:59:32.458Z,97444.59
2022-10-17T18:02:29.532Z,97448.59
2022-10-17T18:05:26.675Z,97445.50
2022-10-17T18:08:23.511Z,97448.19
2022-10-17T18:11:22.027Z,97452.72
2022-10-17T18:14:23.725Z,97446.72
2022-10-17T18:17:20.556Z,97451.13
2022-10-17T18:20:17.481Z,97454.53
2022-10-17T18:23:14.372Z,97462.72
2022-10-17T18:26:11.838Z,97460.44
2022-10-17T18:29:08.720Z,97462.91
2022-10-17T18:32:05.749Z,97468.91
2022-10-17T18:35:02.906Z,97475.66
2022-10-17T18:37:59.733Z,97474.25
2022-10-17T18:41:24.474Z,97476.88
2022-10-17T18:44:21.799Z,97476.16
2022-10-17T18:47:18.710Z,97478.47
2022-10-17T18:50:15.751Z,97488.09
2022-10-17T18:53:12.674Z,97486.81
2022-10-17T18:56:10.623Z,97496.84
2022-10-17T18:59:07.605Z,97497.25
2022-10-17T19:02:04.500Z,97498.19
2022-10-17T19:05:01.395Z,97496.47
2022-10-17T19:07:58.245Z,97501.59
2022-10-17T19:10:55.122Z,97508.75
2022-10-17T19:13:53.185Z,97508.66
2022-10-17T19:16:51.628Z,97508.69
2022-10-17T19:19:51.749Z,97498.06
2022-10-17T19:22:48.598Z,97493.13
2022-10-17T19:25:45.461Z,97493.97
2022-10-17T19:28:42.750Z,97496.66
2022-10-17T19:31:42.133Z,97498.78
2022-10-17T19:34:39.088Z,97497.22
2022-10-17T19:37:35.938Z,97502.06
2022-10-17T19:40:32.759Z,97495.25
2022-10-17T19:43:29.577Z,97501.59
2022-10-17T19:46:28.851Z,97507.13
2022-10-17T19:49:25.775Z,97505.59
2022-10-17T19:52:22.614Z,97510.69
2022-10-17T19:55:19.471Z,97510.91
2022-10-17T19:58:16.383Z,97506.28
2022-10-17T20:01:28.459Z,97509.16
2022-10-17T20:04:26.014Z,97514.75
2022-10-17T20:07:22.877Z,97520.72
2022-10-17T20:10:20.246Z,97520.66
2022-10-17T20:13:17.089Z,97524.50
2022-10-17T20:16:18.378Z,97522.81
2022-10-17T20:19:15.206Z,97526.53
2022-10-17T20:22:12.026Z,97524.00
2022-10-17T20:25:09.322Z,97522.19
2022-10-17T20:28:06.507Z,97530.97
2022-10-17T20:31:05.493Z,97529.09
2022-10-17T20:34:02.347Z,97529.78
2022-10-17T20:36:59.187Z,97534.16
2022-10-17T20:40:16.836Z,97539.66
2022-10-17T20:43:14.077Z,97543.31
2022-10-17T20:46:29.394Z,97533.88
2022-10-17T20:49:32.473Z,97533.56
2022-10-17T20:52:29.290Z,97534.59
2022-10-17T20:55:26.183Z,97541.72
2022-10-17T20:58:22.990Z,97540.78
2022-10-17T21:01:20.416Z,97543.47
2022-10-17T21:07:34.043Z,97544.56
2022-10-17T21:10:35.020Z,97546.16
2022-10-17T21:13:32.538Z,97543.91
2022-10-17T21:16:32.014Z,97546.88
2022-10-17T21:19:28.858Z,97548.31
2022-10-17T21:22:25.758Z,97551.19
2022-10-17T21:25:22.585Z,97549.97
2022-10-17T21:28:19.430Z,97547.38
2022-10-17T21:31:26.172Z,97550.91
2022-10-17T21:34:24.954Z,97552.28
2022-10-17T21:37:21.850Z,97552.03
2022-10-17T21:40:18.762Z,97549.22
2022-10-17T21:43:15.585Z,97546.25
2022-10-17T21:46:19.255Z,97544.41
2022-10-17T21:49:19.788Z,97539.88
2022-10-17T21:52:16.607Z,97539.63
2022-10-17T21:55:13.492Z,97543.06
2022-10-17T21:58:10.369Z,97540.09
2022-10-17T22:01:14.241Z,97540.25
2022-10-17T22:04:14.990Z,97530.16
2022-10-17T22:07:11.762Z,97527.53
2022-10-17T22:10:08.964Z,97535.34
2022-10-17T22:13:06.370Z,97535.16
2022-10-17T22:16:07.582Z,97527.59
2022-10-17T22:19:06.727Z,97522.72
2022-10-17T22:22:03.806Z,97520.16
2022-10-17T22:25:00.626Z,97520.41
2022-10-17T22:27:57.440Z,97528.97
2022-10-17T22:30:54.818Z,97518.13
2022-10-17T22:33:52.105Z,97525.41
2022-10-17T22:36:49.131Z,97519.78
2022-10-17T22:39:45.970Z,97516.16
2022-10-17T22:42:42.786Z,97520.59
2022-10-17T22:45:40.032Z,97515.94
2022-10-17T22:48:37.227Z,97512.28
2022-10-17T22:51:34.148Z,97503.69
2022-10-17T22:54:31.001Z,97513.03
2022-10-17T22:57:27.832Z,97511.19
2022-10-17T23:00:24.712Z,97514.06
2022-10-17T23:03:22.833Z,97521.00
2022-10-17T23:06:20.754Z,97518.13
2022-10-17T23:09:17.611Z,97518.69
2022-10-17T23:12:14.589Z,97528.81
2022-10-17T23:15:11.419Z,97522.47
2022-10-17T23:18:09.703Z,97522.97
2022-10-17T23:21:07.345Z,97524.59
2022-10-17T23:24:04.583Z,97534.00
2022-10-17T23:27:02.296Z,97519.28
2022-10-17T23:29:59.215Z,97526.34
2022-10-17T23:32:56.096Z,97520.63
2022-10-17T23:35:52.907Z,97517.78
2022-10-17T23:38:52.601Z,97518.25
2022-10-17T23:41:52.004Z,97518.31
2022-10-17T23:44:48.881Z,97515.09
2022-10-17T23:47:45.706Z,97511.03
2022-10-17T23:50:43.209Z,97514.75
2022-10-17T23:53:40.846Z,97521.19
2022-10-17T23:56:37.726Z,97523.66
2022-10-17T23:59:34.584Z,97525.41
